sensor_id;sensor_type;location;lat;lon;timestamp;temperature;humidity
10030;DHT22;5055;52.054;8.524;2023-12-07T00:01:25;3.20;97.00
10030;DHT22;5055;52.054;8.524;2023-12-07T00:03:54;3.20;97.00
10030;DHT22;5055;52.054;8.524;2023-12-07T00:06:23;3.20;97.00
10030;DHT22;5055;52.054;8.524;2023-12-07T00:08:52;3.20;97.00
10030;DHT22;5055;52.054;8.524;2023-12-07T00:11:21;3.20;97.00
10030;DHT22;5055;52.054;8.524;2023-12-07T00:13:49;3.20;97.00
10030;DHT22;5055;52.054;8.524;2023-12-07T00:16:17;3.20;97.00
10030;DHT22;5055;52.054;8.524;2023-12-07T00:18:46;3.20;97.00
10030;DHT22;5055;52.054;8.524;2023-12-07T00:21:14;3.20;97.00
10030;DHT22;5055;52.054;8.524;2023-12-07T00:23:42;3.20;97.00
10030;DHT22;5055;52.054;8.524;2023-12-07T00:26:11;3.10;97.00
10030;DHT22;5055;52.054;8.524;2023-12-07T00:28:39;3.10;97.00
10030;DHT22;5055;52.054;8.524;2023-12-07T00:31:07;3.10;97.00
10030;DHT22;5055;52.054;8.524;2023-12-07T00:33:37;3.10;97.00
10030;DHT22;5055;52.054;8.524;2023-12-07T00:36:06;3.10;97.00
10030;DHT22;5055;52.054;8.524;2023-12-07T00:38:34;3.10;97.00
10030;DHT22;5055;52.054;8.524;2023-12-07T00:41:02;3.10;97.00
10030;DHT22;5055;52.054;8.524;2023-12-07T00:43:32;3.10;97.00
10030;DHT22;5055;52.054;8.524;2023-12-07T00:46:00;3.10;97.00
10030;DHT22;5055;52.054;8.524;2023-12-07T00:48:29;3.10;97.00
10030;DHT22;5055;52.054;8.524;2023-12-07T00:50:57;3.00;97.00
10030;DHT22;5055;52.054;8.524;2023-12-07T00:53:25;3.00;97.00
10030;DHT22;5055;52.054;8.524;2023-12-07T00:55:53;3.00;97.00
10030;DHT22;5055;52.054;8.524;2023-12-07T00:58:22;3.00;97.00
10030;DHT22;5055;52.054;8.524;2023-12-07T01:00:54;3.10;97.00
10030;DHT22;5055;52.054;8.524;2023-12-07T01:03:22;3.00;97.00
10030;DHT22;5055;52.054;8.524;2023-12-07T01:05:50;3.00;97.00
10030;DHT22;5055;52.054;8.524;2023-12-07T01:08:18;3.00;97.00
10030;DHT22;5055;52.054;8.524;2023-12-07T01:10:46;3.00;97.00
10030;DHT22;5055;52.054;8.524;2023-12-07T01:13:15;3.00;97.00
10030;DHT22;5055;52.054;8.524;2023-12-07T01:15:43;3.00;97.00
10030;DHT22;5055;52.054;8.524;2023-12-07T01:18:13;3.00;97.00
10030;DHT22;5055;52.054;8.524;2023-12-07T01:20:41;3.00;97.00
10030;DHT22;5055;52.054;8.524;2023-12-07T01:23:09;3.00;97.00
10030;DHT22;5055;52.054;8.524;2023-12-07T01:25:41;3.00;97.00
10030;DHT22;5055;52.054;8.524;2023-12-07T01:28:10;2.90;97.00
10030;DHT22;5055;52.054;8.524;2023-12-07T01:30:38;2.90;97.00
10030;DHT22;5055;52.054;8.524;2023-12-07T01:33:06;2.90;97.00
10030;DHT22;5055;52.054;8.524;2023-12-07T01:35:35;2.90;97.00
10030;DHT22;5055;52.054;8.524;2023-12-07T01:38:05;2.90;97.00
10030;DHT22;5055;52.054;8.524;2023-12-07T01:40:33;2.90;97.00
10030;DHT22;5055;52.054;8.524;2023-12-07T01:43:03;2.90;97.00
10030;DHT22;5055;52.054;8.524;2023-12-07T01:45:31;2.90;97.00
10030;DHT22;5055;52.054;8.524;2023-12-07T01:47:59;2.90;97.00
10030;DHT22;5055;52.054;8.524;2023-12-07T01:50:30;2.90;97.00
10030;DHT22;5055;52.054;8.524;2023-12-07T01:53:02;2.90;97.00
10030;DHT22;5055;52.054;8.524;2023-12-07T01:55:35;2.80;97.00
10030;DHT22;5055;52.054;8.524;2023-12-07T01:58:04;2.80;97.00
10030;DHT22;5055;52.054;8.524;2023-12-07T02:00:33;2.80;97.00
10030;DHT22;5055;52.054;8.524;2023-12-07T02:03:03;2.80;97.00
10030;DHT22;5055;52.054;8.524;2023-12-07T02:05:32;2.80;97.00
10030;DHT22;5055;52.054;8.524;2023-12-07T02:08:02;2.80;97.00
10030;DHT22;5055;52.054;8.524;2023-12-07T02:10:31;2.80;97.00
10030;DHT22;5055;52.054;8.524;2023-12-07T02:12:59;2.80;97.00
10030;DHT22;5055;52.054;8.524;2023-12-07T02:15:27;2.80;97.00
10030;DHT22;5055;52.054;8.524;2023-12-07T02:18:00;2.70;97.00
10030;DHT22;5055;52.054;8.524;2023-12-07T02:20:39;2.70;97.00
10030;DHT22;5055;52.054;8.524;2023-12-07T02:23:10;2.70;97.00
10030;DHT22;5055;52.054;8.524;2023-12-07T02:25:44;2.70;97.00
10030;DHT22;5055;52.054;8.524;2023-12-07T02:28:18;2.70;97.00
10030;DHT22;5055;52.054;8.524;2023-12-07T02:30:47;2.70;97.00
10030;DHT22;5055;52.054;8.524;2023-12-07T02:33:16;2.70;97.00
10030;DHT22;5055;52.054;8.524;2023-12-07T02:35:45;2.60;97.00
10030;DHT22;5055;52.054;8.524;2023-12-07T02:38:13;2.60;97.00
10030;DHT22;5055;52.054;8.524;2023-12-07T02:40:43;2.60;97.00
10030;DHT22;5055;52.054;8.524;2023-12-07T02:43:13;2.60;97.00
10030;DHT22;5055;52.054;8.524;2023-12-07T02:45:44;2.60;97.00
10030;DHT22;5055;52.054;8.524;2023-12-07T02:48:12;2.60;97.00
10030;DHT22;5055;52.054;8.524;2023-12-07T02:50:41;2.60;97.00
10030;DHT22;5055;52.054;8.524;2023-12-07T02:53:11;2.60;97.00
10030;DHT22;5055;52.054;8.524;2023-12-07T02:55:40;2.60;97.00
10030;DHT22;5055;52.054;8.524;2023-12-07T02:58:08;2.50;97.00
10030;DHT22;5055;52.054;8.524;2023-12-07T03:00:37;2.50;97.00
10030;DHT22;5055;52.054;8.524;2023-12-07T03:03:07;2.50;97.00
10030;DHT22;5055;52.054;8.524;2023-12-07T03:05:36;2.50;97.00
10030;DHT22;5055;52.054;8.524;2023-12-07T03:08:05;2.50;97.00
10030;DHT22;5055;52.054;8.524;2023-12-07T03:10:34;2.50;97.00
10030;DHT22;5055;52.054;8.524;2023-12-07T03:13:03;2.50;97.00
10030;DHT22;5055;52.054;8.524;2023-12-07T03:15:32;2.50;97.00
10030;DHT22;5055;52.054;8.524;2023-12-07T03:18:01;2.50;97.00
10030;DHT22;5055;52.054;8.524;2023-12-07T03:20:31;2.50;97.00
10030;DHT22;5055;52.054;8.524;2023-12-07T03:23:00;2.50;97.00
10030;DHT22;5055;52.054;8.524;2023-12-07T03:25:29;2.50;97.00
10030;DHT22;5055;52.054;8.524;2023-12-07T03:27:58;2.50;97.00
10030;DHT22;5055;52.054;8.524;2023-12-07T03:30:27;2.50;97.00
10030;DHT22;5055;52.054;8.524;2023-12-07T03:32:55;2.50;97.00
10030;DHT22;5055;52.054;8.524;2023-12-07T03:35:24;2.40;97.00
10030;DHT22;5055;52.054;8.524;2023-12-07T03:37:54;2.40;97.00
10030;DHT22;5055;52.054;8.524;2023-12-07T03:40:23;2.40;97.00
10030;DHT22;5055;52.054;8.524;2023-12-07T03:42:52;2.40;97.00
10030;DHT22;5055;52.054;8.524;2023-12-07T03:45:23;2.40;97.00
10030;DHT22;5055;52.054;8.524;2023-12-07T03:47:52;2.40;97.00
10030;DHT22;5055;52.054;8.524;2023-12-07T03:50:20;2.40;97.00
10030;DHT22;5055;52.054;8.524;2023-12-07T03:52:49;2.40;97.00
10030;DHT22;5055;52.054;8.524;2023-12-07T03:55:19;2.40;97.00
10030;DHT22;5055;52.054;8.524;2023-12-07T03:57:48;2.30;97.00
10030;DHT22;5055;52.054;8.524;2023-12-07T04:00:17;2.40;97.00
10030;DHT22;5055;52.054;8.524;2023-12-07T04:02:45;2.30;97.00
10030;DHT22;5055;52.054;8.524;2023-12-07T04:05:15;2.30;97.00
10030;DHT22;5055;52.054;8.524;2023-12-07T04:07:44;2.30;97.00
10030;DHT22;5055;52.054;8.524;2023-12-07T04:10:13;2.30;97.00
10030;DHT22;5055;52.054;8.524;2023-12-07T04:12:43;2.20;97.00
10030;DHT22;5055;52.054;8.524;2023-12-07T04:15:12;2.20;97.00
10030;DHT22;5055;52.054;8.524;2023-12-07T04:17:45;2.20;97.00
10030;DHT22;5055;52.054;8.524;2023-12-07T04:20:14;2.20;97.00
10030;DHT22;5055;52.054;8.524;2023-12-07T04:22:43;2.20;97.00
10030;DHT22;5055;52.054;8.524;2023-12-07T04:25:13;2.10;97.00
10030;DHT22;5055;52.054;8.524;2023-12-07T04:27:43;2.10;97.00
10030;DHT22;5055;52.054;8.524;2023-12-07T04:30:13;2.10;97.00
10030;DHT22;5055;52.054;8.524;2023-12-07T04:32:42;2.10;97.00
10030;DHT22;5055;52.054;8.524;2023-12-07T04:35:11;2.00;97.00
10030;DHT22;5055;52.054;8.524;2023-12-07T04:37:39;2.00;97.00
10030;DHT22;5055;52.054;8.524;2023-12-07T04:40:09;2.00;97.00
10030;DHT22;5055;52.054;8.524;2023-12-07T04:42:40;2.00;97.00
10030;DHT22;5055;52.054;8.524;2023-12-07T04:45:10;2.00;97.00
10030;DHT22;5055;52.054;8.524;2023-12-07T04:47:39;2.00;97.00
10030;DHT22;5055;52.054;8.524;2023-12-07T04:50:10;2.00;97.00
10030;DHT22;5055;52.054;8.524;2023-12-07T04:52:40;2.00;97.00
10030;DHT22;5055;52.054;8.524;2023-12-07T04:55:10;2.00;97.00
10030;DHT22;5055;52.054;8.524;2023-12-07T04:57:39;2.00;97.00
10030;DHT22;5055;52.054;8.524;2023-12-07T05:00:10;2.00;97.00
10030;DHT22;5055;52.054;8.524;2023-12-07T05:02:41;2.00;97.00
10030;DHT22;5055;52.054;8.524;2023-12-07T05:05:10;1.90;97.00
10030;DHT22;5055;52.054;8.524;2023-12-07T05:07:40;1.90;97.00
10030;DHT22;5055;52.054;8.524;2023-12-07T05:10:09;1.90;97.00
10030;DHT22;5055;52.054;8.524;2023-12-07T05:12:39;1.90;97.00
10030;DHT22;5055;52.054;8.524;2023-12-07T05:15:10;2.00;97.00
10030;DHT22;5055;52.054;8.524;2023-12-07T05:17:38;1.90;97.00
10030;DHT22;5055;52.054;8.524;2023-12-07T05:20:08;1.90;97.00
10030;DHT22;5055;52.054;8.524;2023-12-07T05:22:36;1.90;97.00
10030;DHT22;5055;52.054;8.524;2023-12-07T05:25:05;1.90;97.00
10030;DHT22;5055;52.054;8.524;2023-12-07T05:27:34;1.90;97.00
10030;DHT22;5055;52.054;8.524;2023-12-07T05:30:02;2.00;97.00
10030;DHT22;5055;52.054;8.524;2023-12-07T05:32:32;2.00;97.00
10030;DHT22;5055;52.054;8.524;2023-12-07T05:35:00;2.00;97.00
10030;DHT22;5055;52.054;8.524;2023-12-07T05:37:28;1.90;97.00
10030;DHT22;5055;52.054;8.524;2023-12-07T05:39:57;2.00;97.00
10030;DHT22;5055;52.054;8.524;2023-12-07T05:42:25;2.00;97.00
10030;DHT22;5055;52.054;8.524;2023-12-07T05:44:53;2.00;97.00
10030;DHT22;5055;52.054;8.524;2023-12-07T05:47:21;2.00;97.00
10030;DHT22;5055;52.054;8.524;2023-12-07T05:49:51;2.00;97.00
10030;DHT22;5055;52.054;8.524;2023-12-07T05:52:20;2.00;97.00
10030;DHT22;5055;52.054;8.524;2023-12-07T05:54:48;2.00;97.00
10030;DHT22;5055;52.054;8.524;2023-12-07T05:57:18;2.00;97.00
10030;DHT22;5055;52.054;8.524;2023-12-07T05:59:47;2.00;97.00
10030;DHT22;5055;52.054;8.524;2023-12-07T06:02:15;2.00;97.00
10030;DHT22;5055;52.054;8.524;2023-12-07T06:04:43;2.00;97.00
10030;DHT22;5055;52.054;8.524;2023-12-07T06:07:12;2.00;97.00
10030;DHT22;5055;52.054;8.524;2023-12-07T06:09:40;2.00;97.00
10030;DHT22;5055;52.054;8.524;2023-12-07T06:12:09;2.00;97.00
10030;DHT22;5055;52.054;8.524;2023-12-07T06:14:38;2.00;97.00
10030;DHT22;5055;52.054;8.524;2023-12-07T06:17:06;2.00;97.00
10030;DHT22;5055;52.054;8.524;2023-12-07T06:19:34;2.00;97.00
10030;DHT22;5055;52.054;8.524;2023-12-07T06:22:05;2.00;97.00
10030;DHT22;5055;52.054;8.524;2023-12-07T06:24:34;2.00;97.00
10030;DHT22;5055;52.054;8.524;2023-12-07T06:27:03;2.00;97.00
10030;DHT22;5055;52.054;8.524;2023-12-07T06:29:32;2.00;97.00
10030;DHT22;5055;52.054;8.524;2023-12-07T06:32:00;2.00;97.00
10030;DHT22;5055;52.054;8.524;2023-12-07T06:34:29;2.00;97.00
10030;DHT22;5055;52.054;8.524;2023-12-07T06:36:57;2.00;97.00
10030;DHT22;5055;52.054;8.524;2023-12-07T06:39:26;2.00;97.00
10030;DHT22;5055;52.054;8.524;2023-12-07T06:41:56;2.00;97.00
10030;DHT22;5055;52.054;8.524;2023-12-07T06:44:26;2.00;97.00
10030;DHT22;5055;52.054;8.524;2023-12-07T06:46:54;2.00;97.00
10030;DHT22;5055;52.054;8.524;2023-12-07T06:49:22;2.00;97.00
10030;DHT22;5055;52.054;8.524;2023-12-07T06:52:01;2.00;97.00
10030;DHT22;5055;52.054;8.524;2023-12-07T06:54:29;2.00;97.00
10030;DHT22;5055;52.054;8.524;2023-12-07T06:56:58;2.00;97.00
10030;DHT22;5055;52.054;8.524;2023-12-07T06:59:26;2.00;97.00
10030;DHT22;5055;52.054;8.524;2023-12-07T07:01:55;2.10;97.00
10030;DHT22;5055;52.054;8.524;2023-12-07T07:04:23;2.10;97.00
10030;DHT22;5055;52.054;8.524;2023-12-07T07:06:51;2.10;97.00
10030;DHT22;5055;52.054;8.524;2023-12-07T07:09:19;2.10;97.00
10030;DHT22;5055;52.054;8.524;2023-12-07T07:11:50;2.20;97.00
10030;DHT22;5055;52.054;8.524;2023-12-07T07:14:24;2.10;97.00
10030;DHT22;5055;52.054;8.524;2023-12-07T07:16:52;2.10;97.00
10030;DHT22;5055;52.054;8.524;2023-12-07T07:19:20;2.20;97.00
10030;DHT22;5055;52.054;8.524;2023-12-07T07:21:51;2.10;97.00
10030;DHT22;5055;52.054;8.524;2023-12-07T07:24:19;2.20;97.00
10030;DHT22;5055;52.054;8.524;2023-12-07T07:26:49;2.20;97.00
10030;DHT22;5055;52.054;8.524;2023-12-07T07:29:18;2.20;97.00
10030;DHT22;5055;52.054;8.524;2023-12-07T07:31:47;2.20;97.00
10030;DHT22;5055;52.054;8.524;2023-12-07T07:34:16;2.10;97.00
10030;DHT22;5055;52.054;8.524;2023-12-07T07:36:45;2.10;97.00
10030;DHT22;5055;52.054;8.524;2023-12-07T07:39:13;2.10;97.00
10030;DHT22;5055;52.054;8.524;2023-12-07T07:41:41;2.10;97.00
10030;DHT22;5055;52.054;8.524;2023-12-07T07:44:09;2.20;97.00
10030;DHT22;5055;52.054;8.524;2023-12-07T07:46:37;2.20;97.00
10030;DHT22;5055;52.054;8.524;2023-12-07T07:49:09;2.20;97.00
10030;DHT22;5055;52.054;8.524;2023-12-07T07:51:37;2.20;97.00
10030;DHT22;5055;52.054;8.524;2023-12-07T07:54:06;2.20;97.00
10030;DHT22;5055;52.054;8.524;2023-12-07T07:56:35;2.20;97.00
10030;DHT22;5055;52.054;8.524;2023-12-07T07:59:04;2.20;97.00
10030;DHT22;5055;52.054;8.524;2023-12-07T08:01:32;2.20;97.00
10030;DHT22;5055;52.054;8.524;2023-12-07T08:04:00;2.20;97.00
10030;DHT22;5055;52.054;8.524;2023-12-07T08:06:32;2.30;97.00
10030;DHT22;5055;52.054;8.524;2023-12-07T08:09:03;2.30;97.00
10030;DHT22;5055;52.054;8.524;2023-12-07T08:11:31;2.30;97.00
10030;DHT22;5055;52.054;8.524;2023-12-07T08:14:00;2.30;97.00
10030;DHT22;5055;52.054;8.524;2023-12-07T08:16:28;2.30;97.00
10030;DHT22;5055;52.054;8.524;2023-12-07T08:18:56;2.40;97.00
10030;DHT22;5055;52.054;8.524;2023-12-07T08:21:25;2.40;97.00
10030;DHT22;5055;52.054;8.524;2023-12-07T08:23:58;2.40;97.00
10030;DHT22;5055;52.054;8.524;2023-12-07T08:26:26;2.40;97.00
10030;DHT22;5055;52.054;8.524;2023-12-07T08:28:55;2.40;97.00
10030;DHT22;5055;52.054;8.524;2023-12-07T08:31:23;2.40;97.00
10030;DHT22;5055;52.054;8.524;2023-12-07T08:33:55;2.40;97.00
10030;DHT22;5055;52.054;8.524;2023-12-07T08:36:23;2.40;97.00
10030;DHT22;5055;52.054;8.524;2023-12-07T08:38:53;2.40;97.00
10030;DHT22;5055;52.054;8.524;2023-12-07T08:41:23;2.40;97.00
10030;DHT22;5055;52.054;8.524;2023-12-07T08:43:51;2.40;97.00
10030;DHT22;5055;52.054;8.524;2023-12-07T08:46:20;2.40;97.00
10030;DHT22;5055;52.054;8.524;2023-12-07T08:48:48;2.40;97.00
10030;DHT22;5055;52.054;8.524;2023-12-07T08:51:16;2.40;97.00
10030;DHT22;5055;52.054;8.524;2023-12-07T08:53:44;2.50;97.00
10030;DHT22;5055;52.054;8.524;2023-12-07T08:56:18;2.50;97.00
10030;DHT22;5055;52.054;8.524;2023-12-07T08:58:47;2.50;97.00
10030;DHT22;5055;52.054;8.524;2023-12-07T09:01:15;2.50;97.00
10030;DHT22;5055;52.054;8.524;2023-12-07T09:03:56;2.50;97.00
10030;DHT22;5055;52.054;8.524;2023-12-07T09:06:24;2.60;97.00
10030;DHT22;5055;52.054;8.524;2023-12-07T09:08:52;2.60;97.00
10030;DHT22;5055;52.054;8.524;2023-12-07T09:11:20;2.60;97.00
10030;DHT22;5055;52.054;8.524;2023-12-07T09:13:50;2.60;97.00
10030;DHT22;5055;52.054;8.524;2023-12-07T09:16:20;2.60;97.00
10030;DHT22;5055;52.054;8.524;2023-12-07T09:18:48;2.60;97.00
10030;DHT22;5055;52.054;8.524;2023-12-07T09:21:17;2.60;97.00
10030;DHT22;5055;52.054;8.524;2023-12-07T09:23:45;2.60;97.00
10030;DHT22;5055;52.054;8.524;2023-12-07T09:26:13;2.60;97.00
10030;DHT22;5055;52.054;8.524;2023-12-07T09:28:41;2.70;97.00
10030;DHT22;5055;52.054;8.524;2023-12-07T09:31:11;2.70;97.00
10030;DHT22;5055;52.054;8.524;2023-12-07T09:33:39;2.70;97.00
10030;DHT22;5055;52.054;8.524;2023-12-07T09:36:08;2.80;97.00
10030;DHT22;5055;52.054;8.524;2023-12-07T09:38:38;2.80;97.00
10030;DHT22;5055;52.054;8.524;2023-12-07T09:41:06;2.90;97.00
10030;DHT22;5055;52.054;8.524;2023-12-07T09:43:34;2.90;97.00
10030;DHT22;5055;52.054;8.524;2023-12-07T09:46:03;2.90;97.00
10030;DHT22;5055;52.054;8.524;2023-12-07T09:48:32;3.00;97.00
10030;DHT22;5055;52.054;8.524;2023-12-07T09:51:01;3.00;97.00
10030;DHT22;5055;52.054;8.524;2023-12-07T09:53:34;3.00;97.00
10030;DHT22;5055;52.054;8.524;2023-12-07T09:56:02;3.10;97.00
10030;DHT22;5055;52.054;8.524;2023-12-07T09:58:31;3.10;97.00
10030;DHT22;5055;52.054;8.524;2023-12-07T10:01:07;3.20;97.00
10030;DHT22;5055;52.054;8.524;2023-12-07T10:03:37;3.20;97.00
10030;DHT22;5055;52.054;8.524;2023-12-07T10:06:05;3.20;97.00
10030;DHT22;5055;52.054;8.524;2023-12-07T10:08:34;3.20;97.00
10030;DHT22;5055;52.054;8.524;2023-12-07T10:11:05;3.20;97.00
10030;DHT22;5055;52.054;8.524;2023-12-07T10:13:35;3.20;97.00
10030;DHT22;5055;52.054;8.524;2023-12-07T10:16:09;3.30;97.00
10030;DHT22;5055;52.054;8.524;2023-12-07T10:18:39;3.30;97.00
10030;DHT22;5055;52.054;8.524;2023-12-07T10:21:10;3.40;97.00
10030;DHT22;5055;52.054;8.524;2023-12-07T10:23:41;3.50;97.00
10030;DHT22;5055;52.054;8.524;2023-12-07T10:26:11;3.60;97.00
10030;DHT22;5055;52.054;8.524;2023-12-07T10:28:39;3.80;97.00
10030;DHT22;5055;52.054;8.524;2023-12-07T10:31:08;4.00;97.00
10030;DHT22;5055;52.054;8.524;2023-12-07T10:33:39;4.00;97.00
10030;DHT22;5055;52.054;8.524;2023-12-07T10:36:08;4.10;97.00
10030;DHT22;5055;52.054;8.524;2023-12-07T10:38:37;4.10;97.00
10030;DHT22;5055;52.054;8.524;2023-12-07T10:41:09;4.30;97.00
10030;DHT22;5055;52.054;8.524;2023-12-07T10:43:43;4.30;97.00
10030;DHT22;5055;52.054;8.524;2023-12-07T10:46:15;4.40;97.00
10030;DHT22;5055;52.054;8.524;2023-12-07T10:48:46;4.50;97.00
10030;DHT22;5055;52.054;8.524;2023-12-07T10:54:03;4.60;97.00
10030;DHT22;5055;52.054;8.524;2023-12-07T10:56:39;4.70;97.00
10030;DHT22;5055;52.054;8.524;2023-12-07T10:59:09;4.80;97.00
10030;DHT22;5055;52.054;8.524;2023-12-07T11:01:47;4.80;97.00
10030;DHT22;5055;52.054;8.524;2023-12-07T11:04:18;4.90;97.00
10030;DHT22;5055;52.054;8.524;2023-12-07T11:06:49;4.80;97.00
10030;DHT22;5055;52.054;8.524;2023-12-07T11:09:21;4.80;97.00
10030;DHT22;5055;52.054;8.524;2023-12-07T11:11:59;4.90;97.00
10030;DHT22;5055;52.054;8.524;2023-12-07T11:14:29;4.80;97.00
10030;DHT22;5055;52.054;8.524;2023-12-07T11:16:57;4.80;97.00
10030;DHT22;5055;52.054;8.524;2023-12-07T11:19:48;4.60;97.00
10030;DHT22;5055;52.054;8.524;2023-12-07T11:22:16;4.60;97.00
10030;DHT22;5055;52.054;8.524;2023-12-07T11:24:55;4.50;97.00
10030;DHT22;5055;52.054;8.524;2023-12-07T11:27:29;4.50;97.00
10030;DHT22;5055;52.054;8.524;2023-12-07T11:29:59;4.50;97.00
10030;DHT22;5055;52.054;8.524;2023-12-07T11:32:30;4.40;97.00
10030;DHT22;5055;52.054;8.524;2023-12-07T11:35:03;4.40;97.00
10030;DHT22;5055;52.054;8.524;2023-12-07T11:38:01;4.40;97.00
10030;DHT22;5055;52.054;8.524;2023-12-07T11:40:30;4.50;97.00
10030;DHT22;5055;52.054;8.524;2023-12-07T11:43:00;4.50;97.00
10030;DHT22;5055;52.054;8.524;2023-12-07T11:45:39;4.50;97.00
10030;DHT22;5055;52.054;8.524;2023-12-07T11:48:11;4.60;97.00
10030;DHT22;5055;52.054;8.524;2023-12-07T11:50:55;4.60;97.00
10030;DHT22;5055;52.054;8.524;2023-12-07T11:53:24;4.60;97.00
10030;DHT22;5055;52.054;8.524;2023-12-07T11:55:53;4.70;97.00
10030;DHT22;5055;52.054;8.524;2023-12-07T11:58:21;4.80;97.00
10030;DHT22;5055;52.054;8.524;2023-12-07T12:00:51;4.80;97.00
10030;DHT22;5055;52.054;8.524;2023-12-07T12:03:20;4.80;97.00
10030;DHT22;5055;52.054;8.524;2023-12-07T12:05:48;4.80;97.00
10030;DHT22;5055;52.054;8.524;2023-12-07T12:08:18;4.80;97.00
10030;DHT22;5055;52.054;8.524;2023-12-07T12:10:47;4.70;97.00
10030;DHT22;5055;52.054;8.524;2023-12-07T12:13:18;4.70;97.00
10030;DHT22;5055;52.054;8.524;2023-12-07T12:15:46;4.80;97.00
10030;DHT22;5055;52.054;8.524;2023-12-07T12:18:16;4.90;97.00
10030;DHT22;5055;52.054;8.524;2023-12-07T12:20:45;4.90;97.00
10030;DHT22;5055;52.054;8.524;2023-12-07T12:23:13;4.90;97.00
10030;DHT22;5055;52.054;8.524;2023-12-07T12:25:42;4.90;97.00
10030;DHT22;5055;52.054;8.524;2023-12-07T12:28:11;4.80;97.00
10030;DHT22;5055;52.054;8.524;2023-12-07T12:30:43;4.80;97.00
10030;DHT22;5055;52.054;8.524;2023-12-07T12:33:13;4.80;97.00
10030;DHT22;5055;52.054;8.524;2023-12-07T12:35:41;4.80;97.00
10030;DHT22;5055;52.054;8.524;2023-12-07T12:38:10;4.90;97.00
10030;DHT22;5055;52.054;8.524;2023-12-07T12:40:54;4.90;97.00
10030;DHT22;5055;52.054;8.524;2023-12-07T12:43:23;5.10;97.00
10030;DHT22;5055;52.054;8.524;2023-12-07T12:45:51;5.30;97.00
10030;DHT22;5055;52.054;8.524;2023-12-07T12:48:32;5.40;97.00
10030;DHT22;5055;52.054;8.524;2023-12-07T12:51:07;5.40;97.00
10030;DHT22;5055;52.054;8.524;2023-12-07T12:53:42;5.30;97.00
10030;DHT22;5055;52.054;8.524;2023-12-07T12:56:15;5.30;97.00
10030;DHT22;5055;52.054;8.524;2023-12-07T12:58:43;5.40;97.00
10030;DHT22;5055;52.054;8.524;2023-12-07T13:01:12;5.60;97.00
10030;DHT22;5055;52.054;8.524;2023-12-07T13:03:40;5.90;97.00
10030;DHT22;5055;52.054;8.524;2023-12-07T13:06:08;6.20;97.00
10030;DHT22;5055;52.054;8.524;2023-12-07T13:08:36;6.70;97.00
10030;DHT22;5055;52.054;8.524;2023-12-07T13:11:05;7.10;97.00
10030;DHT22;5055;52.054;8.524;2023-12-07T13:13:35;7.60;97.00
10030;DHT22;5055;52.054;8.524;2023-12-07T13:16:04;7.90;97.00
10030;DHT22;5055;52.054;8.524;2023-12-07T13:18:32;8.20;97.00
10030;DHT22;5055;52.054;8.524;2023-12-07T13:21:00;8.30;97.00
10030;DHT22;5055;52.054;8.524;2023-12-07T13:23:29;8.20;97.00
10030;DHT22;5055;52.054;8.524;2023-12-07T13:25:57;8.10;97.00
10030;DHT22;5055;52.054;8.524;2023-12-07T13:28:26;8.10;97.00
10030;DHT22;5055;52.054;8.524;2023-12-07T13:30:55;8.10;97.00
10030;DHT22;5055;52.054;8.524;2023-12-07T13:33:23;7.90;97.00
10030;DHT22;5055;52.054;8.524;2023-12-07T13:35:56;8.00;97.00
10030;DHT22;5055;52.054;8.524;2023-12-07T13:38:24;8.30;97.00
10030;DHT22;5055;52.054;8.524;2023-12-07T13:40:55;8.70;97.00
10030;DHT22;5055;52.054;8.524;2023-12-07T13:43:24;8.90;97.00
10030;DHT22;5055;52.054;8.524;2023-12-07T13:45:52;9.00;97.00
10030;DHT22;5055;52.054;8.524;2023-12-07T13:48:21;9.30;97.00
10030;DHT22;5055;52.054;8.524;2023-12-07T13:50:49;9.50;97.00
10030;DHT22;5055;52.054;8.524;2023-12-07T13:53:17;9.50;97.00
10030;DHT22;5055;52.054;8.524;2023-12-07T13:55:47;9.60;97.00
10030;DHT22;5055;52.054;8.524;2023-12-07T13:58:17;9.40;97.00
10030;DHT22;5055;52.054;8.524;2023-12-07T14:00:45;9.30;97.00
10030;DHT22;5055;52.054;8.524;2023-12-07T14:03:14;9.10;97.00
10030;DHT22;5055;52.054;8.524;2023-12-07T14:05:44;8.90;97.00
10030;DHT22;5055;52.054;8.524;2023-12-07T14:08:13;8.50;97.00
10030;DHT22;5055;52.054;8.524;2023-12-07T14:10:41;8.40;97.00
10030;DHT22;5055;52.054;8.524;2023-12-07T14:13:09;8.20;97.00
10030;DHT22;5055;52.054;8.524;2023-12-07T14:15:38;7.90;97.00
10030;DHT22;5055;52.054;8.524;2023-12-07T14:18:11;7.90;97.00
10030;DHT22;5055;52.054;8.524;2023-12-07T14:20:41;7.80;97.00
10030;DHT22;5055;52.054;8.524;2023-12-07T14:23:31;7.70;97.00
10030;DHT22;5055;52.054;8.524;2023-12-07T14:26:02;7.40;97.00
10030;DHT22;5055;52.054;8.524;2023-12-07T14:28:33;7.20;97.00
10030;DHT22;5055;52.054;8.524;2023-12-07T14:31:02;7.00;97.00
10030;DHT22;5055;52.054;8.524;2023-12-07T14:33:33;6.80;97.00
10030;DHT22;5055;52.054;8.524;2023-12-07T14:36:02;6.50;97.00
10030;DHT22;5055;52.054;8.524;2023-12-07T14:38:32;6.20;97.00
10030;DHT22;5055;52.054;8.524;2023-12-07T14:41:00;6.00;97.00
10030;DHT22;5055;52.054;8.524;2023-12-07T14:43:30;5.80;97.00
10030;DHT22;5055;52.054;8.524;2023-12-07T14:45:58;5.60;97.00
10030;DHT22;5055;52.054;8.524;2023-12-07T14:48:26;5.50;97.00
10030;DHT22;5055;52.054;8.524;2023-12-07T14:50:55;5.30;97.00
10030;DHT22;5055;52.054;8.524;2023-12-07T14:53:23;5.20;97.00
10030;DHT22;5055;52.054;8.524;2023-12-07T14:55:54;5.00;97.00
10030;DHT22;5055;52.054;8.524;2023-12-07T14:58:24;4.80;97.00
10030;DHT22;5055;52.054;8.524;2023-12-07T15:00:52;4.70;97.00
10030;DHT22;5055;52.054;8.524;2023-12-07T15:03:21;4.60;97.00
10030;DHT22;5055;52.054;8.524;2023-12-07T15:05:49;4.40;97.00
10030;DHT22;5055;52.054;8.524;2023-12-07T15:08:18;4.30;97.00
10030;DHT22;5055;52.054;8.524;2023-12-07T15:10:46;4.20;97.00
10030;DHT22;5055;52.054;8.524;2023-12-07T15:13:20;4.00;97.00
10030;DHT22;5055;52.054;8.524;2023-12-07T15:15:48;3.90;97.00
10030;DHT22;5055;52.054;8.524;2023-12-07T15:18:16;3.80;97.00
10030;DHT22;5055;52.054;8.524;2023-12-07T15:20:44;3.70;97.00
10030;DHT22;5055;52.054;8.524;2023-12-07T15:23:13;3.60;97.00
10030;DHT22;5055;52.054;8.524;2023-12-07T15:25:41;3.40;97.00
10030;DHT22;5055;52.054;8.524;2023-12-07T15:28:09;3.30;97.00
10030;DHT22;5055;52.054;8.524;2023-12-07T15:30:40;3.20;97.00
10030;DHT22;5055;52.054;8.524;2023-12-07T15:33:08;3.10;97.00
10030;DHT22;5055;52.054;8.524;2023-12-07T15:35:40;3.00;97.00
10030;DHT22;5055;52.054;8.524;2023-12-07T15:38:08;2.90;97.00
10030;DHT22;5055;52.054;8.524;2023-12-07T15:40:37;2.80;97.00
10030;DHT22;5055;52.054;8.524;2023-12-07T15:43:05;2.70;97.00
10030;DHT22;5055;52.054;8.524;2023-12-07T15:45:33;2.60;97.00
10030;DHT22;5055;52.054;8.524;2023-12-07T15:48:03;2.60;97.00
10030;DHT22;5055;52.054;8.524;2023-12-07T15:50:32;2.50;97.00
10030;DHT22;5055;52.054;8.524;2023-12-07T15:53:01;2.50;97.00
10030;DHT22;5055;52.054;8.524;2023-12-07T15:55:29;2.40;97.00
10030;DHT22;5055;52.054;8.524;2023-12-07T15:57:57;2.50;97.00
10030;DHT22;5055;52.054;8.524;2023-12-07T16:00:25;2.40;97.00
10030;DHT22;5055;52.054;8.524;2023-12-07T16:02:53;2.40;97.00
10030;DHT22;5055;52.054;8.524;2023-12-07T16:05:23;2.50;97.00
10030;DHT22;5055;52.054;8.524;2023-12-07T16:07:52;2.60;97.00
10030;DHT22;5055;52.054;8.524;2023-12-07T16:10:21;2.60;97.00
10030;DHT22;5055;52.054;8.524;2023-12-07T16:12:49;2.60;97.00
10030;DHT22;5055;52.054;8.524;2023-12-07T16:15:17;2.60;97.00
10030;DHT22;5055;52.054;8.524;2023-12-07T16:17:46;2.50;97.00
10030;DHT22;5055;52.054;8.524;2023-12-07T16:20:15;2.50;97.00